Time;durP1;ratioP1;P1;durP2;ratioP2;P2;SDS_P1;SDS_P2;PMS_P1;PMS_P2;Temp;Humidity;BMP_temperature;BMP_pressure;BME280_temperature;BME280_humidity;BME280_pressure;Samples;Min_cycle;Max_cycle;Signal;HPM_P1;HPM_P2
2023/09/12 00:00:28;;;;;;;13.38;6.28;;;;;;;;;;7372058;19;20003;-69
2023/09/12 00:02:53;;;;;;;17.05;6.88;;;;;;;;;;7368630;19;20049;-68
2023/09/12 00:05:18;;;;;;;12.55;7.40;;;;;;;;;;7372895;19;20090;-68
2023/09/12 00:07:44;;;;;;;13.13;5.95;;;;;;;;;;7372663;19;20010;-70
2023/09/12 00:10:09;;;;;;;13.90;6.70;;;;;;;;;;7393706;19;20002;-69
2023/09/12 00:12:35;;;;;;;13.38;6.65;;;;;;;;;;7369825;19;20744;-70
2023/09/12 00:15:00;;;;;;;10.77;6.68;;;;;;;;;;7373318;19;20014;-69
2023/09/12 00:17:26;;;;;;;18.88;6.60;;;;;;;;;;7372623;19;20489;-68
2023/09/12 00:19:52;;;;;;;13.15;6.28;;;;;;;;;;7371931;19;20007;-69
2023/09/12 00:22:17;;;;;;;13.90;6.72;;;;;;;;;;7391689;19;20019;-68
2023/09/12 00:24:42;;;;;;;16.17;6.80;;;;;;;;;;7370495;19;20007;-68
2023/09/12 00:27:08;;;;;;;10.25;6.70;;;;;;;;;;7370470;19;20018;-68
2023/09/12 00:29:33;;;;;;;11.68;6.82;;;;;;;;;;7371725;19;20471;-68
2023/09/12 00:31:58;;;;;;;12.70;6.75;;;;;;;;;;7369466;19;20034;-69
2023/09/12 00:34:24;;;;;;;12.43;6.28;;;;;;;;;;7394251;19;20010;-70
2023/09/12 00:36:49;;;;;;;13.45;6.13;;;;;;;;;;7370875;19;20487;-68
2023/09/12 00:39:14;;;;;;;12.55;6.72;;;;;;;;;;7370626;19;20401;-68
2023/09/12 00:41:40;;;;;;;16.60;7.18;;;;;;;;;;7370112;19;20007;-68
2023/09/12 00:44:05;;;;;;;10.60;6.78;;;;;;;;;;7368450;19;20031;-68
2023/09/12 00:46:31;;;;;;;19.65;6.75;;;;;;;;;;7391683;19;19998;-68
2023/09/12 00:48:58;;;;;;;13.80;7.00;;;;;;;;;;7370295;19;20097;-68
2023/09/12 00:51:25;;;;;;;15.48;6.75;;;;;;;;;;7368627;19;20014;-68
2023/09/12 00:53:50;;;;;;;11.98;6.43;;;;;;;;;;7367777;19;20014;-68
2023/09/12 00:56:16;;;;;;;16.30;6.82;;;;;;;;;;7368089;19;20410;-68
2023/09/12 00:58:41;;;;;;;12.10;6.90;;;;;;;;;;7385862;19;20745;-68
2023/09/12 01:01:07;;;;;;;14.77;7.00;;;;;;;;;;7374808;19;20023;-68
2023/09/12 01:03:32;;;;;;;16.70;7.32;;;;;;;;;;7366924;19;20035;-68
2023/09/12 01:05:59;;;;;;;21.23;7.32;;;;;;;;;;7367908;19;20493;-68
2023/09/12 01:08:25;;;;;;;12.25;6.78;;;;;;;;;;7367709;19;20009;-68
2023/09/12 01:10:53;;;;;;;17.75;6.97;;;;;;;;;;7369802;19;20021;-68
2023/09/12 01:13:18;;;;;;;15.50;7.00;;;;;;;;;;7389438;19;20078;-68
2023/09/12 01:15:43;;;;;;;16.30;7.32;;;;;;;;;;7369204;19;20437;-68
2023/09/12 01:18:09;;;;;;;13.18;6.80;;;;;;;;;;7369237;19;20003;-68
2023/09/12 01:20:36;;;;;;;16.95;7.35;;;;;;;;;;7369408;19;20010;-67
2023/09/12 01:23:38;;;;;;;12.95;7.03;;;;;;;;;;7372190;19;20015;-68
2023/09/12 01:26:15;;;;;;;17.15;6.32;;;;;;;;;;7369522;19;20488;-68
2023/09/12 01:28:44;;;;;;;11.05;6.75;;;;;;;;;;7390907;19;20006;-68
2023/09/12 01:31:10;;;;;;;18.73;7.68;;;;;;;;;;7389762;19;20011;-68
2023/09/12 01:33:35;;;;;;;15.05;7.15;;;;;;;;;;7367433;19;20484;-68
2023/09/12 01:36:01;;;;;;;17.00;7.15;;;;;;;;;;7368452;19;20014;-68
2023/09/12 01:38:27;;;;;;;14.73;7.15;;;;;;;;;;7368991;19;20511;-68
2023/09/12 01:40:55;;;;;;;17.27;6.97;;;;;;;;;;7369959;19;20010;-68
2023/09/12 01:43:23;;;;;;;14.90;7.60;;;;;;;;;;7388778;19;20014;-68
2023/09/12 01:45:52;;;;;;;17.40;7.32;;;;;;;;;;7368774;19;20045;-68
2023/09/12 01:48:20;;;;;;;10.95;7.10;;;;;;;;;;7369599;19;20034;-68
2023/09/12 01:50:46;;;;;;;20.30;7.05;;;;;;;;;;7368701;19;20085;-68
2023/09/12 01:53:14;;;;;;;14.20;7.55;;;;;;;;;;7366503;19;20032;-68
2023/09/12 01:55:40;;;;;;;16.23;7.82;;;;;;;;;;7391393;19;20349;-68
2023/09/12 01:58:06;;;;;;;11.77;6.55;;;;;;;;;;7368816;19;20007;-68
2023/09/12 02:00:33;;;;;;;19.17;7.53;;;;;;;;;;7368518;19;20031;-68
2023/09/12 02:02:59;;;;;;;15.25;7.53;;;;;;;;;;7368061;19;20017;-68
2023/09/12 02:05:24;;;;;;;16.75;7.78;;;;;;;;;;7369564;19;20015;-68
2023/09/12 02:07:50;;;;;;;15.63;7.50;;;;;;;;;;7368524;19;20395;-68
2023/09/12 02:10:16;;;;;;;21.75;7.07;;;;;;;;;;7389453;19;20007;-68
2023/09/12 02:12:41;;;;;;;14.60;7.50;;;;;;;;;;7365915;19;20011;-68
2023/09/12 02:15:07;;;;;;;19.85;7.30;;;;;;;;;;7367567;19;20026;-68
2023/09/12 02:17:32;;;;;;;16.17;7.25;;;;;;;;;;7368002;19;20014;-68
2023/09/12 02:19:58;;;;;;;14.55;7.85;;;;;;;;;;7368839;19;20179;-68
2023/09/12 02:22:23;;;;;;;15.23;7.22;;;;;;;;;;7388751;19;20003;-68
2023/09/12 02:24:49;;;;;;;12.23;6.70;;;;;;;;;;7367231;19;20006;-68
2023/09/12 02:27:15;;;;;;;13.07;6.85;;;;;;;;;;7366767;19;20017;-68
2023/09/12 02:29:41;;;;;;;13.25;6.93;;;;;;;;;;7366735;19;20066;-68
2023/09/12 02:32:06;;;;;;;16.25;7.20;;;;;;;;;;7366215;19;20132;-68
2023/09/12 02:34:32;;;;;;;13.95;6.80;;;;;;;;;;7388733;19;20600;-68
2023/09/12 02:36:57;;;;;;;14.50;6.80;;;;;;;;;;7366750;19;20010;-68
2023/09/12 02:39:23;;;;;;;14.75;6.88;;;;;;;;;;7366981;19;20021;-68
2023/09/12 02:41:48;;;;;;;13.52;7.10;;;;;;;;;;7365642;19;20035;-68
2023/09/12 02:44:13;;;;;;;19.00;7.60;;;;;;;;;;7366625;19;20047;-68
2023/09/12 02:46:39;;;;;;;19.00;7.50;;;;;;;;;;7388604;19;20022;-68
2023/09/12 02:49:04;;;;;;;20.23;7.68;;;;;;;;;;7366555;19;20019;-68
2023/09/12 02:51:31;;;;;;;18.63;7.40;;;;;;;;;;7365127;19;20096;-68
2023/09/12 02:53:56;;;;;;;14.32;6.85;;;;;;;;;;7365995;19;20007;-68
2023/09/12 02:56:22;;;;;;;15.70;7.00;;;;;;;;;;7367412;19;20007;-68
2023/09/12 02:58:48;;;;;;;20.45;7.25;;;;;;;;;;7365678;19;20010;-68
2023/09/12 03:01:18;;;;;;;18.63;7.43;;;;;;;;;;7387069;19;20042;-68
2023/09/12 03:03:46;;;;;;;21.73;7.97;;;;;;;;;;7364620;19;20041;-68
2023/09/12 03:06:12;;;;;;;15.60;7.30;;;;;;;;;;7366050;19;20013;-68
2023/09/12 03:08:38;;;;;;;25.35;8.13;;;;;;;;;;7364690;19;20007;-68
2023/09/12 03:11:03;;;;;;;17.70;7.85;;;;;;;;;;7365135;19;20010;-68
2023/09/12 03:13:28;;;;;;;21.05;7.82;;;;;;;;;;7386171;19;20002;-68
2023/09/12 03:15:54;;;;;;;23.48;8.05;;;;;;;;;;7365556;19;20035;-68
2023/09/12 03:18:19;;;;;;;19.13;7.95;;;;;;;;;;7366009;19;20014;-69
2023/09/12 03:20:44;;;;;;;17.85;7.88;;;;;;;;;;7366135;19;20010;-68
2023/09/12 03:23:10;;;;;;;16.75;8.05;;;;;;;;;;7364719;19;20045;-68
2023/09/12 03:25:37;;;;;;;17.83;8.25;;;;;;;;;;7387769;19;20018;-67
2023/09/12 03:28:03;;;;;;;15.27;7.88;;;;;;;;;;7366144;19;19999;-69
2023/09/12 03:30:29;;;;;;;22.42;8.80;;;;;;;;;;7365697;19;20028;-67
2023/09/12 03:32:54;;;;;;;16.45;8.55;;;;;;;;;;7364434;19;20008;-68
2023/09/12 03:35:19;;;;;;;16.38;8.98;;;;;;;;;;7366615;19;20010;-67
2023/09/12 03:37:45;;;;;;;17.58;7.90;;;;;;;;;;7366921;19;20005;-67
2023/09/12 03:40:11;;;;;;;12.90;7.93;;;;;;;;;;7386977;19;20003;-67
2023/09/12 03:42:36;;;;;;;14.98;8.63;;;;;;;;;;7363880;19;20477;-67
2023/09/12 03:45:03;;;;;;;18.05;7.93;;;;;;;;;;7365755;19;20013;-67
2023/09/12 03:47:28;;;;;;;16.85;7.80;;;;;;;;;;7364988;19;20684;-68
2023/09/12 03:49:53;;;;;;;13.20;7.47;;;;;;;;;;7365240;19;20006;-68
2023/09/12 03:52:19;;;;;;;13.18;7.25;;;;;;;;;;7376399;19;20031;-67
2023/09/12 03:54:44;;;;;;;15.43;7.20;;;;;;;;;;7360427;19;20011;-67
2023/09/12 03:57:09;;;;;;;13.02;7.25;;;;;;;;;;7364815;19;20002;-68
2023/09/12 03:59:35;;;;;;;15.63;7.43;;;;;;;;;;7363516;19;20029;-67
2023/09/12 04:02:02;;;;;;;14.35;7.32;;;;;;;;;;7361131;19;20125;-68
2023/09/12 04:04:28;;;;;;;18.90;7.88;;;;;;;;;;7385189;19;20011;-69
2023/09/12 04:06:54;;;;;;;14.13;7.32;;;;;;;;;;7363664;19;20015;-69
2023/09/12 04:09:20;;;;;;;18.15;7.13;;;;;;;;;;7363900;19;20010;-68
2023/09/12 04:11:45;;;;;;;15.48;6.85;;;;;;;;;;7361130;19;20528;-68
2023/09/12 04:14:10;;;;;;;20.17;7.68;;;;;;;;;;7364205;19;20075;-68
2023/09/12 04:16:36;;;;;;;14.45;8.23;;;;;;;;;;7385241;19;20011;-68
2023/09/12 04:19:01;;;;;;;14.75;7.80;;;;;;;;;;7364253;19;20017;-68
2023/09/12 04:21:26;;;;;;;15.05;7.90;;;;;;;;;;7370587;19;20083;-69
2023/09/12 04:23:52;;;;;;;15.68;8.63;;;;;;;;;;7371832;19;20007;-67
2023/09/12 04:26:17;;;;;;;17.50;8.07;;;;;;;;;;7370598;19;20014;-69
2023/09/12 04:28:43;;;;;;;13.02;7.80;;;;;;;;;;7378709;19;20003;-67
2023/09/12 04:31:09;;;;;;;19.88;8.38;;;;;;;;;;7391608;19;20469;-67
2023/09/12 04:33:34;;;;;;;19.27;8.73;;;;;;;;;;7368053;19;20015;-67
2023/09/12 04:36:01;;;;;;;15.60;7.60;;;;;;;;;;7370324;19;20022;-68
2023/09/12 04:38:26;;;;;;;15.90;7.72;;;;;;;;;;7368899;19;20006;-68
2023/09/12 04:41:04;;;;;;;13.43;7.82;;;;;;;;;;7366307;19;20003;-69
2023/09/12 04:43:30;;;;;;;15.80;7.97;;;;;;;;;;7391012;19;20004;-68
2023/09/12 04:45:55;;;;;;;15.27;7.45;;;;;;;;;;7370301;19;20011;-68
2023/09/12 04:48:21;;;;;;;13.65;8.10;;;;;;;;;;7370536;19;20595;-67
2023/09/12 04:50:46;;;;;;;14.57;7.57;;;;;;;;;;7369689;19;20006;-68
2023/09/12 04:53:12;;;;;;;12.45;7.40;;;;;;;;;;7368929;19;20134;-68
2023/09/12 04:55:38;;;;;;;16.58;7.63;;;;;;;;;;7392310;19;20003;-68
2023/09/12 04:58:04;;;;;;;16.58;7.38;;;;;;;;;;7370752;19;20003;-69
2023/09/12 05:00:30;;;;;;;18.55;8.10;;;;;;;;;;7370777;19;20872;-67
2023/09/12 05:02:55;;;;;;;11.80;7.70;;;;;;;;;;7369682;19;19999;-68
2023/09/12 05:05:21;;;;;;;14.80;7.75;;;;;;;;;;7371524;19;20022;-68
2023/09/12 05:07:46;;;;;;;16.20;7.70;;;;;;;;;;7370992;19;19999;-68
2023/09/12 05:10:12;;;;;;;21.40;7.97;;;;;;;;;;7392590;19;20002;-68
2023/09/12 05:12:37;;;;;;;16.15;8.32;;;;;;;;;;7367669;19;20077;-67
2023/09/12 05:15:03;;;;;;;16.27;8.20;;;;;;;;;;7370215;19;20500;-67
2023/09/12 05:17:28;;;;;;;14.23;7.10;;;;;;;;;;7355045;19;20504;-67
2023/09/12 05:19:53;;;;;;;10.98;6.65;;;;;;;;;;7366343;19;20050;-67
2023/09/12 05:22:20;;;;;;;17.02;7.20;;;;;;;;;;7389105;19;20002;-68
2023/09/12 05:24:45;;;;;;;15.75;7.50;;;;;;;;;;7369257;19;20011;-68
2023/09/12 05:27:11;;;;;;;14.98;7.18;;;;;;;;;;7370964;19;20027;-67
2023/09/12 05:29:36;;;;;;;15.43;6.85;;;;;;;;;;7370468;19;20384;-68
2023/09/12 05:32:02;;;;;;;16.52;7.60;;;;;;;;;;7367687;19;20010;-68
2023/09/12 05:34:27;;;;;;;12.35;7.38;;;;;;;;;;7391345;19;20010;-66
2023/09/12 05:36:53;;;;;;;16.48;7.43;;;;;;;;;;7368583;19;20007;-67
2023/09/12 05:39:18;;;;;;;11.45;6.93;;;;;;;;;;7369091;19;20006;-68
2023/09/12 05:41:44;;;;;;;12.13;6.50;;;;;;;;;;7369117;19;20125;-69
2023/09/12 05:44:09;;;;;;;15.95;6.88;;;;;;;;;;7371109;19;20456;-69
2023/09/12 05:46:35;;;;;;;17.88;7.00;;;;;;;;;;7392605;19;20006;-67
2023/09/12 05:49:00;;;;;;;17.27;7.10;;;;;;;;;;7369750;19;20002;-67
2023/09/12 05:51:26;;;;;;;15.50;6.78;;;;;;;;;;7367785;19;20016;-67
2023/09/12 05:53:51;;;;;;;16.65;6.72;;;;;;;;;;7365746;19;20464;-68
2023/09/12 05:56:16;;;;;;;12.40;7.00;;;;;;;;;;7367597;19;20036;-68
2023/09/12 05:58:42;;;;;;;15.93;7.00;;;;;;;;;;7384640;19;20184;-68
2023/09/12 06:01:08;;;;;;;17.02;7.13;;;;;;;;;;7383329;19;20467;-68
2023/09/12 06:03:34;;;;;;;17.05;7.45;;;;;;;;;;7367310;19;20011;-68
2023/09/12 06:05:59;;;;;;;14.57;6.78;;;;;;;;;;7367039;19;20003;-67
2023/09/12 06:08:24;;;;;;;13.48;7.10;;;;;;;;;;7366061;19;20007;-68
2023/09/12 06:10:53;;;;;;;12.73;6.95;;;;;;;;;;7367478;19;20010;-68
2023/09/12 06:13:19;;;;;;;16.50;6.97;;;;;;;;;;7387358;19;20018;-67
2023/09/12 06:15:44;;;;;;;17.40;7.47;;;;;;;;;;7367835;19;20021;-70
2023/09/12 06:18:10;;;;;;;11.52;6.60;;;;;;;;;;7367459;19;20509;-68
2023/09/12 06:20:35;;;;;;;16.80;7.63;;;;;;;;;;7368099;19;20018;-68
2023/09/12 06:23:01;;;;;;;13.45;7.00;;;;;;;;;;7366204;19;20496;-68
2023/09/12 06:25:28;;;;;;;12.20;6.88;;;;;;;;;;7390842;19;20333;-67
2023/09/12 06:27:53;;;;;;;14.98;6.90;;;;;;;;;;7371552;19;20010;-67
2023/09/12 06:30:19;;;;;;;12.93;6.60;;;;;;;;;;7367512;19;20401;-67
2023/09/12 06:32:44;;;;;;;12.98;6.90;;;;;;;;;;7367377;19;20019;-68
2023/09/12 06:35:10;;;;;;;17.10;6.53;;;;;;;;;;7368360;19;20010;-67
2023/09/12 06:37:37;;;;;;;10.48;6.10;;;;;;;;;;7389093;19;20453;-67
2023/09/12 06:40:03;;;;;;;11.02;6.05;;;;;;;;;;7367439;19;19998;-67
2023/09/12 06:42:28;;;;;;;13.02;6.57;;;;;;;;;;7362963;19;20066;-68
2023/09/12 06:44:54;;;;;;;17.00;5.95;;;;;;;;;;7367969;19;20014;-68
2023/09/12 06:47:19;;;;;;;15.93;6.25;;;;;;;;;;7367141;19;20022;-67
2023/09/12 06:49:45;;;;;;;15.35;6.43;;;;;;;;;;7367767;19;20472;-68
2023/09/12 06:52:10;;;;;;;11.75;6.47;;;;;;;;;;7386083;19;19994;-68
2023/09/12 06:54:35;;;;;;;13.02;6.50;;;;;;;;;;7366358;19;20006;-67
2023/09/12 06:57:01;;;;;;;19.25;6.70;;;;;;;;;;7366447;19;20017;-67
2023/09/12 06:59:26;;;;;;;19.40;6.63;;;;;;;;;;7368063;19;20003;-67
2023/09/12 07:01:52;;;;;;;14.70;6.28;;;;;;;;;;7364903;19;20007;-69
2023/09/12 07:04:17;;;;;;;10.63;5.93;;;;;;;;;;7389580;19;19995;-68
2023/09/12 07:06:42;;;;;;;12.38;5.90;;;;;;;;;;7365856;19;20390;-68
2023/09/12 07:09:08;;;;;;;13.45;5.90;;;;;;;;;;7368891;19;19998;-68
2023/09/12 07:11:34;;;;;;;13.20;5.85;;;;;;;;;;7366378;19;20003;-68
2023/09/12 07:14:00;;;;;;;15.00;6.10;;;;;;;;;;7363420;19;20095;-68
2023/09/12 07:16:25;;;;;;;16.17;6.13;;;;;;;;;;7381321;19;19994;-68
2023/09/12 07:18:51;;;;;;;15.85;6.28;;;;;;;;;;7364490;19;20010;-67
2023/09/12 07:21:16;;;;;;;10.05;5.65;;;;;;;;;;7365384;19;20705;-69
2023/09/12 07:23:42;;;;;;;13.75;6.72;;;;;;;;;;7363529;19;20013;-68
2023/09/12 07:26:15;;;;;;;11.68;6.15;;;;;;;;;;7366298;19;20016;-69
2023/09/12 07:28:40;;;;;;;19.10;5.80;;;;;;;;;;7386467;19;20007;-69
2023/09/12 07:31:06;;;;;;;12.57;6.10;;;;;;;;;;7364442;19;20030;-69
2023/09/12 07:33:31;;;;;;;13.63;5.70;;;;;;;;;;7364720;19;20397;-69
2023/09/12 07:35:56;;;;;;;12.48;5.45;;;;;;;;;;7365894;19;20250;-69
2023/09/12 07:38:22;;;;;;;14.35;5.45;;;;;;;;;;7365997;19;20007;-69
2023/09/12 07:40:48;;;;;;;13.10;6.32;;;;;;;;;;7367220;19;20003;-68
2023/09/12 07:43:13;;;;;;;16.42;5.65;;;;;;;;;;7383566;19;20006;-68
2023/09/12 07:45:39;;;;;;;13.65;5.70;;;;;;;;;;7364709;19;20337;-69
2023/09/12 07:48:07;;;;;;;14.40;5.75;;;;;;;;;;7364493;19;20043;-69
2023/09/12 07:50:33;;;;;;;15.85;5.55;;;;;;;;;;7366105;19;20035;-69
2023/09/12 07:52:58;;;;;;;17.40;5.95;;;;;;;;;;7364179;19;20605;-69
2023/09/12 07:55:24;;;;;;;11.77;5.75;;;;;;;;;;7395604;19;20010;-69
2023/09/12 07:57:49;;;;;;;12.07;6.30;;;;;;;;;;7372789;19;20014;-69
2023/09/12 08:00:16;;;;;;;11.93;5.55;;;;;;;;;;7373175;19;20430;-69
2023/09/12 08:02:41;;;;;;;15.52;5.65;;;;;;;;;;7370915;19;20567;-69
2023/09/12 08:05:08;;;;;;;15.00;6.45;;;;;;;;;;7374713;19;20039;-67
2023/09/12 08:07:33;;;;;;;13.23;5.90;;;;;;;;;;7395056;19;19994;-69
2023/09/12 08:09:59;;;;;;;12.23;5.78;;;;;;;;;;7373106;19;20061;-67
2023/09/12 08:12:26;;;;;;;13.15;5.80;;;;;;;;;;7368925;19;20043;-69
2023/09/12 08:14:51;;;;;;;12.65;5.78;;;;;;;;;;7370996;19;20006;-69
2023/09/12 08:17:17;;;;;;;14.82;6.18;;;;;;;;;;7371481;19;20035;-69
2023/09/12 08:19:43;;;;;;;12.85;5.70;;;;;;;;;;7377826;19;20106;-69
2023/09/12 08:22:10;;;;;;;14.95;5.85;;;;;;;;;;7392714;19;20001;-69
2023/09/12 08:24:36;;;;;;;13.70;5.15;;;;;;;;;;7371855;19;20014;-69
2023/09/12 08:27:03;;;;;;;10.13;5.22;;;;;;;;;;7371795;19;20432;-69
2023/09/12 08:29:29;;;;;;;9.25;5.28;;;;;;;;;;7371960;19;20006;-69
2023/09/12 08:31:55;;;;;;;12.85;5.03;;;;;;;;;;7371392;19;20467;-69
2023/09/12 08:34:21;;;;;;;11.55;4.93;;;;;;;;;;7394080;19;20073;-68
2023/09/12 08:36:47;;;;;;;13.82;6.10;;;;;;;;;;7372434;19;20740;-68
2023/09/12 08:39:15;;;;;;;12.85;5.68;;;;;;;;;;7372002;19;20495;-68
2023/09/12 08:41:41;;;;;;;9.60;4.70;;;;;;;;;;7371582;19;20003;-68
2023/09/12 08:44:07;;;;;;;15.43;5.13;;;;;;;;;;7370747;19;20599;-69
2023/09/12 08:46:32;;;;;;;14.05;5.45;;;;;;;;;;7392397;19;20006;-68
2023/09/12 08:48:58;;;;;;;9.55;4.93;;;;;;;;;;7370995;19;20010;-68
2023/09/12 08:51:23;;;;;;;16.42;5.30;;;;;;;;;;7368963;19;20007;-68
2023/09/12 08:53:52;;;;;;;11.02;4.65;;;;;;;;;;7370471;19;20017;-68
2023/09/12 08:56:20;;;;;;;11.90;5.57;;;;;;;;;;7370728;19;20552;-69
2023/09/12 08:58:47;;;;;;;12.52;4.75;;;;;;;;;;7371186;19;19995;-68
2023/09/12 09:01:14;;;;;;;11.95;5.10;;;;;;;;;;7391999;19;20026;-70
2023/09/12 09:03:44;;;;;;;10.40;5.20;;;;;;;;;;7370464;19;20464;-69
2023/09/12 09:06:10;;;;;;;13.25;5.43;;;;;;;;;;7368814;19;20022;-69
2023/09/12 09:08:37;;;;;;;13.70;5.10;;;;;;;;;;7368700;19;20019;-69
2023/09/12 09:11:03;;;;;;;16.00;5.38;;;;;;;;;;7369816;19;19996;-69
2023/09/12 09:13:29;;;;;;;15.75;5.40;;;;;;;;;;7390053;19;20101;-69
2023/09/12 09:16:13;;;;;;;15.38;4.88;;;;;;;;;;7370120;19;20466;-69
2023/09/12 09:18:53;;;;;;;8.80;5.15;;;;;;;;;;7369462;19;20023;-69
2023/09/12 09:21:19;;;;;;;9.43;5.22;;;;;;;;;;7370355;19;20006;-70
2023/09/12 09:23:49;;;;;;;13.65;5.30;;;;;;;;;;7369002;19;20031;-67
2023/09/12 09:26:14;;;;;;;11.82;5.22;;;;;;;;;;7369942;19;20039;-67
2023/09/12 09:28:39;;;;;;;10.75;5.50;;;;;;;;;;7389792;19;20003;-66
2023/09/12 09:31:10;;;;;;;10.33;5.07;;;;;;;;;;7367999;19;20006;-66
2023/09/12 09:33:36;;;;;;;13.82;5.10;;;;;;;;;;7368577;19;20252;-66
2023/09/12 09:36:06;;;;;;;11.93;5.30;;;;;;;;;;7370075;19;20427;-66
2023/09/12 09:38:31;;;;;;;13.88;5.70;;;;;;;;;;7368880;19;20468;-66
2023/09/12 09:40:57;;;;;;;12.40;5.18;;;;;;;;;;7368882;19;20032;-66
2023/09/12 09:43:24;;;;;;;13.38;5.93;;;;;;;;;;7389007;19;20341;-66
2023/09/12 09:45:50;;;;;;;14.93;5.30;;;;;;;;;;7369459;19;19998;-67
2023/09/12 09:48:23;;;;;;;12.57;5.10;;;;;;;;;;7369424;19;20354;-66
2023/09/12 09:50:49;;;;;;;12.10;5.53;;;;;;;;;;7368729;19;20007;-67
2023/09/12 09:53:14;;;;;;;14.98;6.18;;;;;;;;;;7367902;19;20090;-65
2023/09/12 09:55:40;;;;;;;15.50;5.75;;;;;;;;;;7390364;19;20003;-65
2023/09/12 09:58:05;;;;;;;10.10;5.03;;;;;;;;;;7368816;19;20002;-65
2023/09/12 10:00:33;;;;;;;11.00;6.13;;;;;;;;;;7367970;19;20023;-65
2023/09/12 10:02:59;;;;;;;16.10;6.60;;;;;;;;;;7368212;19;20006;-65
2023/09/12 10:05:28;;;;;;;15.77;6.50;;;;;;;;;;7368947;19;20017;-66
2023/09/12 10:07:56;;;;;;;11.43;5.72;;;;;;;;;;7368944;19;19995;-65
2023/09/12 10:10:24;;;;;;;11.80;6.22;;;;;;;;;;7390408;19;19999;-67
2023/09/12 10:12:53;;;;;;;14.40;6.38;;;;;;;;;;7366763;19;20013;-66
2023/09/12 10:15:19;;;;;;;16.15;6.95;;;;;;;;;;7367318;19;20061;-66
2023/09/12 10:17:51;;;;;;;12.15;5.90;;;;;;;;;;7368257;19;20022;-66
2023/09/12 10:20:20;;;;;;;13.70;6.40;;;;;;;;;;7368859;19;20394;-66
2023/09/12 10:23:03;;;;;;;12.35;6.28;;;;;;;;;;7365908;19;19998;-66
2023/09/12 10:25:29;;;;;;;15.02;7.55;;;;;;;;;;7391214;19;20002;-66
2023/09/12 10:27:54;;;;;;;17.13;6.38;;;;;;;;;;7372762;19;20011;-65
2023/09/12 10:30:22;;;;;;;16.08;5.55;;;;;;;;;;7366883;19;20523;-66
2023/09/12 10:32:49;;;;;;;16.35;6.25;;;;;;;;;;7366508;19;20010;-66
2023/09/12 10:35:15;;;;;;;8.48;5.25;;;;;;;;;;7367794;19;20022;-66
2023/09/12 10:37:44;;;;;;;13.50;5.90;;;;;;;;;;7389684;19;20014;-66
2023/09/12 10:40:11;;;;;;;18.73;8.00;;;;;;;;;;7367802;19;20347;-66
2023/09/12 10:42:36;;;;;;;12.93;6.35;;;;;;;;;;7366513;19;20352;-66
2023/09/12 10:45:05;;;;;;;15.50;6.15;;;;;;;;;;7367617;19;20013;-65
2023/09/12 10:47:31;;;;;;;11.70;6.70;;;;;;;;;;7367037;19;20002;-65
2023/09/12 10:49:57;;;;;;;18.80;8.13;;;;;;;;;;7366724;19;20079;-65
2023/09/12 10:52:27;;;;;;;12.75;6.85;;;;;;;;;;7387467;19;20002;-67
2023/09/12 10:54:52;;;;;;;15.57;8.32;;;;;;;;;;7367154;19;20017;-66
2023/09/12 10:57:19;;;;;;;15.23;8.68;;;;;;;;;;7368244;19;20010;-66
2023/09/12 10:59:59;;;;;;;12.77;7.80;;;;;;;;;;7365577;19;20002;-65
2023/09/12 11:02:28;;;;;;;;;;;;;;;;;;7368660;19;20003;-66
2023/09/12 11:04:53;;;;;;;10.65;6.53;;;;;;;;;;7368416;19;20447;-66
2023/09/12 11:07:39;;;;;;;15.50;6.65;;;;;;;;;;7387400;19;19994;-67
2023/09/12 11:10:20;;;;;;;14.98;6.68;;;;;;;;;;7363705;19;20027;-67
2023/09/12 11:12:49;;;;;;;10.35;5.78;;;;;;;;;;7359896;19;20040;-67
2023/09/12 11:15:15;;;;;;;12.43;5.95;;;;;;;;;;7367445;19;20007;-66
2023/09/12 11:17:44;;;;;;;10.75;5.85;;;;;;;;;;7366379;19;20380;-66
2023/09/12 11:20:11;;;;;;;13.30;5.70;;;;;;;;;;7366462;19;20007;-67
2023/09/12 11:22:40;;;;;;;12.73;5.47;;;;;;;;;;7386620;19;20010;-66
2023/09/12 11:25:26;;;;;;;14.33;5.60;;;;;;;;;;7366398;19;20010;-66
2023/09/12 11:27:51;;;;;;;12.07;5.60;;;;;;;;;;7367525;19;20239;-66
2023/09/12 11:30:21;;;;;;;11.65;5.68;;;;;;;;;;7381523;19;20007;-67
2023/09/12 11:32:48;;;;;;;;;;;;;;;;;;7372833;19;20010;-66
2023/09/12 11:35:14;;;;;;;11.13;5.70;;;;;;;;;;7379322;19;19996;-66
2023/09/12 11:37:48;;;;;;;11.07;5.60;;;;;;;;;;7401969;19;20010;-66
2023/09/12 11:40:13;;;;;;;11.40;6.22;;;;;;;;;;7379246;19;20027;-66
2023/09/12 11:42:42;;;;;;;14.80;6.20;;;;;;;;;;7377721;19;20006;-67
2023/09/12 11:45:11;;;;;;;13.68;6.10;;;;;;;;;;7379507;19;20768;-67
2023/09/12 11:47:43;;;;;;;12.05;5.72;;;;;;;;;;7379994;19;20010;-65
2023/09/12 11:50:32;;;;;;;12.25;5.93;;;;;;;;;;7381002;19;20014;-67
2023/09/12 11:53:06;;;;;;;14.50;5.82;;;;;;;;;;7379538;19;20449;-66
2023/09/12 11:55:37;;;;;;;13.32;5.95;;;;;;;;;;7404005;19;20011;-66
2023/09/12 11:58:05;;;;;;;13.20;5.63;;;;;;;;;;7384132;19;20011;-67
2023/09/12 12:00:32;;;;;;;12.18;5.70;;;;;;;;;;7380155;19;20019;-67
2023/09/12 12:02:57;;;;;;;11.10;5.70;;;;;;;;;;7377870;19;20028;-66
2023/09/12 12:05:23;;;;;;;13.02;6.18;;;;;;;;;;7380829;19;20006;-67
2023/09/12 12:07:49;;;;;;;13.55;6.20;;;;;;;;;;7380627;19;20002;-66
2023/09/12 12:10:16;;;;;;;9.38;6.22;;;;;;;;;;7401017;19;20422;-66
2023/09/12 12:12:48;;;;;;;11.90;6.55;;;;;;;;;;7377133;19;20014;-67
2023/09/12 12:15:13;;;;;;;14.45;7.10;;;;;;;;;;7379661;19;20007;-67
2023/09/12 12:17:42;;;;;;;9.57;6.43;;;;;;;;;;7379743;19;20107;-67
2023/09/12 12:20:10;;;;;;;14.35;6.63;;;;;;;;;;7379720;19;20017;-66
2023/09/12 12:22:37;;;;;;;11.80;6.20;;;;;;;;;;7399587;19;20444;-67
2023/09/12 12:25:10;;;;;;;10.80;6.05;;;;;;;;;;7378745;19;20023;-68
2023/09/12 12:27:39;;;;;;;12.98;6.10;;;;;;;;;;7377130;19;19998;-66
2023/09/12 12:30:07;;;;;;;10.35;5.95;;;;;;;;;;7378306;19;20019;-65
2023/09/12 12:32:32;;;;;;;13.35;6.40;;;;;;;;;;7377374;19;20035;-67
2023/09/12 12:34:57;;;;;;;12.82;6.38;;;;;;;;;;7377846;19;20348;-67
2023/09/12 12:37:30;;;;;;;9.45;5.40;;;;;;;;;;7400203;19;20006;-67
2023/09/12 12:39:55;;;;;;;14.60;6.35;;;;;;;;;;7372708;19;20619;-67
2023/09/12 12:42:23;;;;;;;12.70;6.25;;;;;;;;;;7370069;19;20043;-67
2023/09/12 12:44:52;;;;;;;13.82;6.32;;;;;;;;;;7369804;19;20025;-67
2023/09/12 12:47:18;;;;;;;13.50;7.43;;;;;;;;;;7371712;19;20006;-67
2023/09/12 12:49:43;;;;;;;12.50;6.50;;;;;;;;;;7375466;19;20040;-67
2023/09/12 12:52:11;;;;;;;10.25;6.03;;;;;;;;;;7390257;19;20031;-67
2023/09/12 12:54:37;;;;;;;11.07;6.07;;;;;;;;;;7369051;19;20003;-67
2023/09/12 12:57:02;;;;;;;11.98;6.10;;;;;;;;;;7371365;19;20481;-66
2023/09/12 12:59:29;;;;;;;13.95;6.82;;;;;;;;;;7370817;19;20010;-66
2023/09/12 13:01:55;;;;;;;13.18;6.28;;;;;;;;;;7368078;19;20421;-66
2023/09/12 13:04:20;;;;;;;13.10;5.93;;;;;;;;;;7392713;19;20005;-66
2023/09/12 13:06:46;;;;;;;11.38;5.80;;;;;;;;;;7370106;19;20360;-66
2023/09/12 13:09:11;;;;;;;12.07;6.35;;;;;;;;;;7370341;19;20010;-66
2023/09/12 13:11:37;;;;;;;12.13;5.93;;;;;;;;;;7369570;19;20007;-67
2023/09/12 13:14:09;;;;;;;12.77;6.68;;;;;;;;;;7371799;19;20016;-67
2023/09/12 13:16:34;;;;;;;13.60;6.22;;;;;;;;;;7393405;19;20006;-67
2023/09/12 13:19:00;;;;;;;12.38;5.70;;;;;;;;;;7370204;19;20014;-67
2023/09/12 13:21:25;;;;;;;15.68;6.10;;;;;;;;;;7369630;19;20073;-67
2023/09/12 13:23:50;;;;;;;12.20;5.82;;;;;;;;;;7369694;19;20010;-67
2023/09/12 13:26:16;;;;;;;11.40;5.50;;;;;;;;;;7375244;19;20369;-68
2023/09/12 13:28:41;;;;;;;10.35;5.68;;;;;;;;;;7407107;19;20007;-67
2023/09/12 13:31:07;;;;;;;11.45;5.60;;;;;;;;;;7378891;19;20337;-67
2023/09/12 13:33:32;;;;;;;9.82;5.90;;;;;;;;;;7369617;19;20023;-67
2023/09/12 13:35:57;;;;;;;14.00;5.60;;;;;;;;;;7369569;19;20065;-67
2023/09/12 13:38:23;;;;;;;11.60;5.20;;;;;;;;;;7370697;19;20268;-67
2023/09/12 13:40:48;;;;;;;11.57;4.85;;;;;;;;;;7367387;19;20251;-67
2023/09/12 13:43:14;;;;;;;12.75;5.75;;;;;;;;;;7389203;19;20375;-67
2023/09/12 13:45:40;;;;;;;12.02;5.22;;;;;;;;;;7369131;19;20668;-66
2023/09/12 13:48:06;;;;;;;9.82;5.25;;;;;;;;;;7368299;19;20378;-67
2023/09/12 13:50:32;;;;;;;12.85;5.30;;;;;;;;;;7369668;19;20094;-67
2023/09/12 13:53:06;;;;;;;9.82;4.88;;;;;;;;;;7365110;19;20589;-67
2023/09/12 13:55:35;;;;;;;8.73;4.80;;;;;;;;;;7390855;19;20496;-67
2023/09/12 13:58:06;;;;;;;13.27;5.50;;;;;;;;;;7368382;19;20018;-66
2023/09/12 14:00:33;;;;;;;12.10;5.28;;;;;;;;;;7372392;19;20013;-66
2023/09/12 14:02:58;;;;;;;7.10;4.65;;;;;;;;;;7372828;19;20032;-66
2023/09/12 14:05:24;;;;;;;10.95;4.57;;;;;;;;;;7370758;19;20010;-67
2023/09/12 14:07:50;;;;;;;7.60;4.30;;;;;;;;;;7368979;19;20017;-66
2023/09/12 14:10:15;;;;;;;8.82;5.60;;;;;;;;;;7391040;19;20002;-66
2023/09/12 14:12:41;;;;;;;7.78;4.70;;;;;;;;;;7364818;19;20006;-67
2023/09/12 14:15:07;;;;;;;9.93;4.83;;;;;;;;;;7366914;19;20107;-67
2023/09/12 14:17:32;;;;;;;13.32;5.80;;;;;;;;;;7367728;19;20317;-67
2023/09/12 14:19:58;;;;;;;13.35;5.65;;;;;;;;;;7367812;19;20002;-67
2023/09/12 14:22:23;;;;;;;10.65;5.15;;;;;;;;;;7388463;19;20054;-66
2023/09/12 14:24:48;;;;;;;10.40;5.32;;;;;;;;;;7367571;19;20010;-67
2023/09/12 14:27:14;;;;;;;10.90;5.20;;;;;;;;;;7368182;19;20017;-66